Time;durP1;ratioP1;P1;durP2;ratioP2;P2;SDS_P1;SDS_P2;PMS_P1;PMS_P2;Temp;Humidity;BMP_temperature;BMP_pressure;BME280_temperature;BME280_humidity;BME280_pressure;Samples;Min_cycle;Max_cycle;Signal;HPM_P1;HPM_P2
2022/12/07 00:01:26;;;;;;;0.90;0.90;;;;;;;7.54;100.00;99606.88;5130881;27;20250;-66
2022/12/07 00:03:56;;;;;;;0.80;0.80;;;;;;;7.53;100.00;99607.75;5131888;27;20197;-66
2022/12/07 00:06:24;;;;;;;1.07;0.90;;;;;;;7.49;100.00;99606.09;5130585;27;20229;-66
2022/12/07 00:08:52;;;;;;;0.80;0.80;;;;;;;7.42;100.00;99610.44;5138746;27;20685;-66
2022/12/07 00:11:21;;;;;;;0.80;0.80;;;;;;;7.38;100.00;99608.78;5132048;27;20666;-66
2022/12/07 00:13:48;;;;;;;0.50;0.50;;;;;;;7.37;100.00;99614.75;5132009;27;20190;-66
2022/12/07 00:16:17;;;;;;;0.73;0.73;;;;;;;7.35;100.00;99614.78;5133051;27;20206;-66
2022/12/07 00:18:45;;;;;;;0.60;0.60;;;;;;;7.29;100.00;99604.66;5142911;27;20585;-66
2022/12/07 00:21:14;;;;;;;0.73;0.73;;;;;;;7.25;100.00;99609.81;5130445;27;20202;-66
2022/12/07 00:23:42;;;;;;;0.70;0.70;;;;;;;7.21;100.00;99609.00;5148725;27;20201;-66
2022/12/07 00:26:13;;;;;;;0.50;0.50;;;;;;;7.15;100.00;99609.09;5134068;27;20197;-66
2022/12/07 00:28:40;;;;;;;1.00;1.00;;;;;;;7.14;100.00;99611.69;5139992;27;20213;-66
2022/12/07 00:31:09;;;;;;;10.33;3.80;;;;;;;7.09;100.00;99608.34;5131358;27;20198;-66
2022/12/07 00:33:38;;;;;;;1.23;1.23;;;;;;;7.11;100.00;99614.28;5131607;27;20206;-66
2022/12/07 00:36:08;;;;;;;0.63;0.63;;;;;;;7.10;100.00;99604.94;5131519;27;20282;-66
2022/12/07 00:38:36;;;;;;;0.60;0.60;;;;;;;7.14;100.00;99617.59;5131734;27;20201;-66
2022/12/07 00:41:05;;;;;;;0.53;0.53;;;;;;;7.13;100.00;99610.84;5131567;27;20194;-66
2022/12/07 00:43:34;;;;;;;0.90;0.90;;;;;;;7.14;100.00;99609.94;5151417;27;20253;-66
2022/12/07 00:46:01;;;;;;;1.43;1.33;;;;;;;7.13;100.00;99615.94;5147556;27;20206;-66
2022/12/07 00:48:28;;;;;;;0.60;0.60;;;;;;;7.09;100.00;99616.84;5129026;27;20221;-66
2022/12/07 00:50:55;;;;;;;0.60;0.60;;;;;;;7.05;100.00;99607.53;5134987;27;20664;-66
2022/12/07 00:53:21;;;;;;;0.80;0.80;;;;;;;6.98;100.00;99598.25;5132441;27;20729;-66
2022/12/07 00:55:48;;;;;;;0.83;0.83;;;;;;;7.02;100.00;99602.47;5131809;27;20198;-66
2022/12/07 00:58:15;;;;;;;0.60;0.60;;;;;;;6.99;100.00;99602.50;5136246;27;20197;-66
2022/12/07 01:00:44;;;;;;;0.60;0.60;;;;;;;7.00;100.00;99599.13;5137000;27;20653;-66
2022/12/07 01:03:13;;;;;;;0.63;0.63;;;;;;;6.95;100.00;99593.22;5126892;27;20202;-66
2022/12/07 01:05:40;;;;;;;0.63;0.63;;;;;;;7.03;100.00;99593.13;5134573;27;20845;-66
2022/12/07 01:08:07;;;;;;;1.00;1.00;;;;;;;7.03;100.00;99593.97;5133255;27;20213;-66
2022/12/07 01:10:34;;;;;;;0.80;0.80;;;;;;;6.91;100.00;99573.75;5144494;27;20247;-66
2022/12/07 01:13:01;;;;;;;1.00;1.00;;;;;;;6.98;100.00;99593.16;5130728;27;20201;-66
2022/12/07 01:15:28;;;;;;;0.70;0.70;;;;;;;6.94;100.00;99589.00;5130908;27;20190;-66
2022/12/07 01:17:56;;;;;;;0.90;0.90;;;;;;;6.94;100.00;99589.00;5139780;27;20201;-66
2022/12/07 01:20:23;;;;;;;0.47;0.47;;;;;;;7.00;100.00;99578.72;5151693;27;20205;-66
2022/12/07 01:22:50;;;;;;;0.80;0.80;;;;;;;6.99;100.00;99571.94;5150818;27;20197;-66
2022/12/07 01:25:17;;;;;;;0.70;0.70;;;;;;;7.00;100.00;99568.53;5155687;27;20624;-66
2022/12/07 01:27:43;;;;;;;1.40;1.40;;;;;;;6.89;100.00;99575.44;5152593;27;20245;-66
2022/12/07 01:30:12;;;;;;;1.17;0.87;;;;;;;6.85;100.00;99568.69;5151647;27;20202;-66
2022/12/07 01:32:38;;;;;;;0.70;0.70;;;;;;;6.83;100.00;99575.53;5142556;27;20247;-66
2022/12/07 01:35:07;;;;;;;0.60;0.60;;;;;;;6.82;100.00;99572.13;5135124;27;20201;-66
2022/12/07 01:37:38;;;;;;;1.07;1.07;;;;;;;6.84;100.00;99572.13;5134210;27;20198;-66
2022/12/07 01:40:07;;;;;;;0.73;0.73;;;;;;;6.80;100.00;99562.84;5140839;27;20205;-66
2022/12/07 01:42:34;;;;;;;0.60;0.60;;;;;;;6.84;100.00;99567.03;5149441;27;20226;-66
2022/12/07 01:45:40;;;;;;;0.40;0.40;;;;;;;6.80;100.00;99568.78;5134663;27;20202;-66
2022/12/07 01:48:09;;;;;;;1.03;1.03;;;;;;;6.75;100.00;99554.41;5142644;27;20219;-66
2022/12/07 01:50:41;;;;;;;0.47;0.47;;;;;;;6.82;100.00;99559.41;5155249;27;20201;-66
2022/12/07 01:53:11;;;;;;;0.80;0.80;;;;;;;6.81;100.00;99556.88;5147994;27;20583;-66
2022/12/07 01:55:41;;;;;;;0.80;0.80;;;;;;;6.80;100.00;99560.28;5141830;27;20228;-66
2022/12/07 01:58:09;;;;;;;0.50;0.50;;;;;;;6.83;100.00;99561.09;5138724;27;20680;-66
2022/12/07 02:00:35;;;;;;;0.90;0.90;;;;;;;6.86;100.00;99560.22;5134342;27;20740;-66
2022/12/07 02:03:08;;;;;;;0.50;0.50;;;;;;;6.85;100.00;99564.44;5143139;27;20206;-66
2022/12/07 02:05:37;;;;;;;0.50;0.50;;;;;;;6.86;100.00;99560.22;5133755;27;20697;-66
2022/12/07 02:08:06;;;;;;;1.70;1.60;;;;;;;6.88;100.00;99552.56;5133837;27;20222;-66
2022/12/07 02:10:34;;;;;;;0.63;0.63;;;;;;;6.86;100.00;99550.00;5134474;27;20669;-66
2022/12/07 02:13:05;;;;;;;0.93;0.93;;;;;;;6.84;100.00;99547.50;5134308;27;20190;-66
2022/12/07 02:15:42;;;;;;;1.50;1.10;;;;;;;6.79;100.00;99528.00;5134525;27;20565;-66
2022/12/07 02:18:12;;;;;;;0.53;0.53;;;;;;;6.84;100.00;99542.41;5139908;27;21596;-66
2022/12/07 02:20:44;;;;;;;1.23;1.23;;;;;;;6.84;100.00;99541.56;5139796;27;20239;-66
2022/12/07 02:23:35;;;;;;;0.50;0.50;;;;;;;6.86;100.00;99534.72;5132586;27;20194;-66
2022/12/07 02:26:24;;;;;;;0.60;0.60;;;;;;;6.68;100.00;99515.44;5147193;27;20684;-66
2022/12/07 02:29:11;;;;;;;0.70;0.70;;;;;;;6.85;100.00;99522.84;5134148;27;20206;-66
2022/12/07 02:31:41;;;;;;;0.80;0.80;;;;;;;6.88;100.00;99527.91;5144451;27;20204;-66
2022/12/07 02:34:13;;;;;;;0.90;0.90;;;;;;;6.90;100.00;99528.72;5145145;27;20730;-66
2022/12/07 02:36:44;;;;;;;0.60;0.60;;;;;;;6.92;100.00;99528.69;5133625;27;20198;-66
2022/12/07 02:39:18;;;;;;;1.37;1.37;;;;;;;6.95;100.00;99519.31;5133577;27;20200;-66
2022/12/07 02:41:50;;;;;;;1.03;1.03;;;;;;;6.97;100.00;99527.78;5150765;27;20588;-66
2022/12/07 02:44:22;;;;;;;0.60;0.60;;;;;;;6.86;100.00;99509.25;5132781;27;20205;-66
2022/12/07 02:46:53;;;;;;;0.40;0.40;;;;;;;6.99;100.00;99522.66;5154404;27;20683;-66
2022/12/07 02:49:23;;;;;;;0.90;0.90;;;;;;;6.93;100.00;99517.66;5143838;27;20228;-66
2022/12/07 02:51:50;;;;;;;0.50;0.50;;;;;;;6.91;100.00;99517.69;5151805;27;20201;-66
2022/12/07 02:54:19;;;;;;;0.60;0.60;;;;;;;6.89;100.00;99509.19;5137941;27;20201;-66
2022/12/07 02:56:52;;;;;;;0.73;0.73;;;;;;;6.88;100.00;99515.19;5133304;27;20194;-66
2022/12/07 02:59:33;;;;;;;0.73;0.73;;;;;;;6.92;100.00;99514.25;5133256;27;20251;-66
2022/12/07 03:02:13;;;;;;;1.37;1.37;;;;;;;6.94;100.00;99502.34;5130975;27;20226;-66
2022/12/07 03:04:51;;;;;;;0.77;0.77;;;;;;;6.87;100.00;99508.38;5131824;27;20198;-66
2022/12/07 03:07:26;;;;;;;0.50;0.50;;;;;;;6.97;100.00;99512.50;5132982;27;20660;-66
2022/12/07 03:10:02;;;;;;;1.87;1.40;;;;;;;7.00;100.00;99515.00;5148692;27;20219;-66
2022/12/07 03:12:36;;;;;;;0.50;0.50;;;;;;;7.02;100.00;99508.16;5132267;27;20193;-66
2022/12/07 03:15:08;;;;;;;0.60;0.60;;;;;;;7.03;100.00;99509.88;5141107;27;20592;-66
2022/12/07 03:17:40;;;;;;;0.53;0.53;;;;;;;6.99;100.00;99510.75;5137102;27;20243;-66
2022/12/07 03:20:10;;;;;;;0.63;0.63;;;;;;;7.04;100.00;99520.91;5132874;27;20201;-66
2022/12/07 03:22:42;;;;;;;0.87;0.87;;;;;;;7.06;100.00;99521.72;5146030;27;20198;-66
2022/12/07 03:25:12;;;;;;;0.60;0.60;;;;;;;7.01;100.00;99514.13;5131682;27;20202;-66
2022/12/07 03:27:43;;;;;;;0.40;0.40;;;;;;;7.07;100.00;99519.16;5133352;27;20273;-66
2022/12/07 03:30:16;;;;;;;1.37;1.37;;;;;;;7.09;100.00;99517.41;5144784;27;20200;-66
2022/12/07 03:32:48;;;;;;;0.50;0.50;;;;;;;7.07;100.00;99508.97;5133396;27;20245;-66
2022/12/07 03:35:21;;;;;;;0.53;0.53;;;;;;;7.05;100.00;99523.41;5136888;27;20636;-66
2022/12/07 03:37:53;;;;;;;1.53;0.90;;;;;;;7.07;100.00;99514.06;5132417;27;20247;-66
2022/12/07 03:40:26;;;;;;;0.50;0.50;;;;;;;7.06;100.00;99504.72;5133870;27;20288;-66
2022/12/07 03:42:54;;;;;;;0.60;0.60;;;;;;;7.03;100.00;99507.31;5132401;27;20206;-66
2022/12/07 03:45:27;;;;;;;0.83;0.83;;;;;;;6.99;100.00;99508.22;5140803;27;20573;-66
2022/12/07 03:48:03;;;;;;;0.50;0.50;;;;;;;6.96;100.00;99510.81;5132396;27;20685;-66
2022/12/07 03:50:36;;;;;;;0.80;0.80;;;;;;;6.85;100.00;99497.34;5132348;27;20194;-66
2022/12/07 03:53:09;;;;;;;0.70;0.70;;;;;;;6.91;100.00;99517.69;5131774;27;20202;-66
2022/12/07 03:55:41;;;;;;;0.83;0.83;;;;;;;6.91;100.00;99512.59;5132302;27;20201;-66
2022/12/07 03:58:12;;;;;;;1.20;1.10;;;;;;;6.90;100.00;99510.91;5152602;27;20198;-66
2022/12/07 04:00:42;;;;;;;0.50;0.50;;;;;;;6.91;100.00;99506.66;5152728;27;20630;-66
2022/12/07 04:03:09;;;;;;;0.60;0.60;;;;;;;6.90;100.00;99512.59;5152600;27;20197;-66
2022/12/07 04:05:36;;;;;;;0.60;0.60;;;;;;;6.89;100.00;99506.66;5152596;27;20220;-66
2022/12/07 04:08:04;;;;;;;0.43;0.43;;;;;;;6.89;100.00;99504.09;5138781;27;20281;-66
2022/12/07 04:10:31;;;;;;;0.50;0.50;;;;;;;6.91;100.00;99502.41;5131314;27;20205;-66
2022/12/07 04:12:58;;;;;;;0.50;0.50;;;;;;;6.92;100.00;99491.31;5133973;27;21626;-66
2022/12/07 04:15:24;;;;;;;0.50;0.50;;;;;;;6.91;100.00;99499.84;5152581;27;20200;-66
2022/12/07 04:17:53;;;;;;;0.50;0.50;;;;;;;6.81;100.00;99483.00;5131388;27;20193;-66
2022/12/07 04:20:20;;;;;;;0.50;0.50;;;;;;;6.80;100.00;99488.94;5135507;27;20197;-66
2022/12/07 04:22:47;;;;;;;0.50;0.50;;;;;;;6.80;100.00;99499.13;5150468;27;20653;-66
2022/12/07 04:25:14;;;;;;;0.40;0.40;;;;;;;6.78;100.00;99488.97;5141761;27;21659;-66
2022/12/07 04:27:41;;;;;;;0.57;0.57;;;;;;;6.77;100.00;99489.84;5144310;27;20193;-66
2022/12/07 04:30:09;;;;;;;0.50;0.50;;;;;;;6.76;100.00;99490.69;5152476;27;20205;-66
2022/12/07 04:32:36;;;;;;;0.83;0.83;;;;;;;6.79;100.00;99489.81;5139850;27;20209;-66
2022/12/07 04:35:05;;;;;;;0.50;0.50;;;;;;;6.82;100.00;99487.22;5131322;27;20189;-66
2022/12/07 04:37:31;;;;;;;1.90;1.67;;;;;;;6.82;100.00;99498.25;5131220;27;20197;-66
2022/12/07 04:39:58;;;;;;;0.50;0.50;;;;;;;6.78;100.00;99496.63;5138857;27;20235;-66
2022/12/07 04:42:25;;;;;;;0.90;0.90;;;;;;;6.76;100.00;99493.25;5133162;27;20194;-66
2022/12/07 04:44:52;;;;;;;0.50;0.50;;;;;;;6.72;100.00;99490.78;5139782;27;20193;-66
2022/12/07 04:47:18;;;;;;;0.50;0.50;;;;;;;6.63;100.00;99490.88;5139700;27;20205;-66
2022/12/07 04:49:45;;;;;;;0.90;0.90;;;;;;;6.61;100.00;99485.81;5131244;27;20274;-66
2022/12/07 04:52:13;;;;;;;0.60;0.60;;;;;;;6.58;100.00;99497.72;5131517;27;20201;-66
2022/12/07 04:54:40;;;;;;;0.60;0.60;;;;;;;6.52;100.00;99505.44;5133032;27;20668;-66
2022/12/07 04:57:07;;;;;;;0.80;0.80;;;;;;;6.53;100.00;99494.38;5135617;27;20202;-66
2022/12/07 04:59:34;;;;;;;0.60;0.60;;;;;;;6.53;100.00;99499.47;5146965;27;20189;-66
2022/12/07 05:02:00;;;;;;;0.50;0.50;;;;;;;6.53;100.00;99495.22;5155326;27;20674;-66
2022/12/07 05:04:27;;;;;;;0.50;0.50;;;;;;;6.54;100.00;99498.63;5151533;27;20215;-66
2022/12/07 05:06:54;;;;;;;1.43;1.43;;;;;;;6.53;100.00;99502.03;5135341;27;20230;-66
2022/12/07 05:09:22;;;;;;;3.70;2.07;;;;;;;6.50;100.00;99499.50;5134669;27;20205;-66
2022/12/07 05:11:49;;;;;;;0.60;0.60;;;;;;;6.48;100.00;99498.72;5134941;27;20194;-66
2022/12/07 05:14:18;;;;;;;0.97;0.97;;;;;;;6.51;100.00;99502.06;5135492;27;20577;-66
2022/12/07 05:16:47;;;;;;;0.77;0.77;;;;;;;6.50;100.00;99492.72;5141425;27;20706;-66
2022/12/07 05:19:14;;;;;;;0.70;0.70;;;;;;;6.48;100.00;99497.00;5152124;27;20248;-66
2022/12/07 05:21:41;;;;;;;0.50;0.50;;;;;;;6.45;100.00;99497.03;5134408;27;20205;-66
2022/12/07 05:24:10;;;;;;;0.40;0.40;;;;;;;6.44;100.00;99505.53;5142252;27;20231;-66
2022/12/07 05:26:38;;;;;;;0.93;0.93;;;;;;;6.47;100.00;99504.66;5134866;27;20198;-66
2022/12/07 05:29:05;;;;;;;0.60;0.60;;;;;;;6.40;100.00;99492.88;5134799;27;20290;-66
2022/12/07 05:31:33;;;;;;;1.53;1.53;;;;;;;6.41;100.00;99510.66;5128601;27;20197;-66
2022/12/07 05:34:00;;;;;;;0.93;0.93;;;;;;;6.42;100.00;99517.47;5132751;27;20201;-66
2022/12/07 05:36:28;;;;;;;0.60;0.60;;;;;;;6.43;100.00;99514.03;5127634;27;20622;-66
2022/12/07 05:38:55;;;;;;;0.50;0.50;;;;;;;6.44;100.00;99514.88;5131602;27;20285;-66
2022/12/07 05:44:07;;;;;;;0.63;0.63;;;;;;;6.37;100.00;99518.34;5134079;27;20704;-66
2022/12/07 05:46:35;;;;;;;0.73;0.73;;;;;;;6.32;100.00;99514.16;5138665;27;20204;-66
2022/12/07 05:49:02;;;;;;;0.50;0.50;;;;;;;6.37;100.00;99513.25;5155164;27;20218;-66
2022/12/07 05:51:29;;;;;;;0.53;0.53;;;;;;;6.34;100.00;99512.44;5155195;27;20197;-66
2022/12/07 05:53:56;;;;;;;0.57;0.57;;;;;;;6.33;100.00;99513.28;5155237;27;20609;-66
2022/12/07 05:56:24;;;;;;;0.63;0.63;;;;;;;6.32;100.00;99511.63;5142455;27;20198;-66
2022/12/07 06:01:36;;;;;;;0.60;0.60;;;;;;;6.33;100.00;99520.94;5150460;27;20741;-66
2022/12/07 06:04:03;;;;;;;0.73;0.73;;;;;;;6.22;100.00;99504.94;5138065;27;20202;-66
2022/12/07 06:06:30;;;;;;;0.50;0.50;;;;;;;6.32;100.00;99526.91;5154541;27;20217;-66
2022/12/07 06:08:57;;;;;;;0.70;0.70;;;;;;;6.29;100.00;99521.00;5155201;27;20221;-66
2022/12/07 06:14:07;;;;;;;0.80;0.80;;;;;;;6.29;100.00;99521.84;5134353;27;20189;-66
2022/12/07 06:16:35;;;;;;;0.60;0.60;;;;;;;6.27;100.00;99523.53;5139483;27;20274;-66
2022/12/07 06:19:02;;;;;;;0.60;0.60;;;;;;;6.21;100.00;99526.16;5139912;27;20201;-66
2022/12/07 06:21:29;;;;;;;0.80;0.80;;;;;;;6.02;100.00;99499.22;5134323;27;20198;-66
2022/12/07 06:23:56;;;;;;;0.60;0.60;;;;;;;6.12;100.00;99522.88;5133321;27;20255;-66
2022/12/07 06:26:23;;;;;;;1.27;1.23;;;;;;;6.11;100.00;99527.09;5133948;27;20198;-66
2022/12/07 06:28:50;;;;;;;0.90;0.90;;;;;;;6.05;100.00;99526.31;5135002;27;20201;-66
2022/12/07 06:31:16;;;;;;;2.33;2.33;;;;;;;5.95;100.00;99520.50;5132712;27;20682;-66
2022/12/07 06:33:45;;;;;;;0.60;0.60;;;;;;;5.81;100.00;99528.25;5143743;27;20263;-66
2022/12/07 06:36:12;;;;;;;0.80;0.80;;;;;;;5.74;100.00;99518.13;5135629;27;20279;-66
2022/12/07 06:38:39;;;;;;;0.60;0.60;;;;;;;5.78;100.00;99528.25;5133900;27;20198;-66
2022/12/07 06:41:06;;;;;;;0.60;0.60;;;;;;;5.78;100.00;99529.97;5142462;27;20704;-66
2022/12/07 06:43:33;;;;;;;0.60;0.60;;;;;;;5.79;100.00;99521.47;5130686;27;20212;-66
2022/12/07 06:46:00;;;;;;;0.60;0.60;;;;;;;5.82;100.00;99534.16;5132309;27;20630;-66
2022/12/07 06:48:27;;;;;;;0.80;0.80;;;;;;;5.85;100.00;99531.56;5127089;27;20199;-66
2022/12/07 06:50:55;;;;;;;0.53;0.53;;;;;;;5.87;100.00;99527.38;5131949;27;20217;-66
2022/12/07 06:53:22;;;;;;;0.60;0.60;;;;;;;5.58;100.00;99480.97;5137730;27;20198;-66
2022/12/07 06:55:49;;;;;;;0.50;0.50;;;;;;;5.92;100.00;99525.59;5132413;27;20257;-66
2022/12/07 06:58:16;;;;;;;0.40;0.40;;;;;;;5.95;100.00;99517.94;5134838;27;20805;-67
2022/12/07 07:00:43;;;;;;;0.60;0.60;;;;;;;6.01;100.00;99522.97;5130921;27;20208;-67
2022/12/07 07:03:10;;;;;;;0.57;0.57;;;;;;;6.06;100.00;99523.78;5131517;27;20198;-67
2022/12/07 07:05:36;;;;;;;0.80;0.80;;;;;;;6.12;100.00;99518.63;5129214;27;20225;-67
2022/12/07 07:08:05;;;;;;;0.60;0.60;;;;;;;6.17;100.00;99516.06;5133504;27;20254;-67
2022/12/07 07:10:32;;;;;;;0.80;0.80;;;;;;;6.24;100.00;99515.09;5129735;27;20236;-66
2022/12/07 07:12:58;;;;;;;1.70;1.63;;;;;;;6.34;100.00;99525.16;5133131;27;20451;-66
2022/12/07 07:15:25;;;;;;;0.80;0.80;;;;;;;6.50;100.00;99524.97;5127366;27;20209;-66
2022/12/07 07:17:52;;;;;;;1.83;1.70;;;;;;;6.59;100.00;99519.81;5147600;27;20209;-66
2022/12/07 07:20:19;;;;;;;0.60;0.60;;;;;;;6.64;100.00;99518.03;5149856;27;20190;-66
2022/12/07 07:22:45;;;;;;;1.00;1.00;;;;;;;6.74;100.00;99520.44;5133845;27;20955;-66
2022/12/07 07:25:14;;;;;;;0.80;0.80;;;;;;;6.94;100.00;99516.78;5132540;27;20274;-65
2022/12/07 07:27:41;;;;;;;0.80;0.80;;;;;;;6.99;100.00;99515.84;5127953;27;20202;-66
2022/12/07 07:30:09;;;;;;;0.50;0.50;;;;;;;7.03;100.00;99501.38;5132368;27;20693;-66
2022/12/07 07:32:35;;;;;;;1.03;1.03;;;;;;;7.13;100.00;99510.56;5141222;27;20198;-65
2022/12/07 07:35:02;;;;;;;0.60;0.60;;;;;;;7.14;100.00;99523.28;5144084;27;20561;-65
2022/12/07 07:37:29;;;;;;;1.03;0.67;;;;;;;7.22;100.00;99528.28;5141043;27;20198;-66
2022/12/07 07:39:56;;;;;;;0.80;0.80;;;;;;;7.25;100.00;99534.19;5137115;27;20604;-65
2022/12/07 07:42:24;;;;;;;1.70;0.80;;;;;;;7.31;100.00;99534.09;5147414;27;20208;-65
2022/12/07 07:44:51;;;;;;;0.50;0.50;;;;;;;7.29;100.00;99525.63;5128630;27;20673;-65
2022/12/07 07:47:18;;;;;;;0.50;0.50;;;;;;;7.39;100.00;99542.47;5133012;27;20206;-66
2022/12/07 07:49:44;;;;;;;1.50;1.50;;;;;;;7.34;100.00;99523.84;5143543;27;20685;-65
2022/12/07 07:52:11;;;;;;;0.67;0.67;;;;;;;7.49;100.00;99537.22;5139338;27;20198;-63
2022/12/07 07:54:38;;;;;;;0.53;0.53;;;;;;;7.54;100.00;99530.34;5132613;27;20239;-65
2022/12/07 07:57:05;;;;;;;1.00;1.00;;;;;;;7.60;100.00;99535.34;5132615;27;20194;-66
2022/12/07 07:59:33;;;;;;;0.70;0.70;;;;;;;7.64;100.00;99536.97;5140133;27;20201;-64
2022/12/07 08:02:00;;;;;;;0.57;0.57;;;;;;;7.68;100.00;99539.47;5137298;27;20198;-65
2022/12/07 08:04:27;;;;;;;0.77;0.77;;;;;;;7.78;100.00;99535.91;5138637;27;20711;-65
2022/12/07 08:06:53;;;;;;;0.83;0.83;;;;;;;7.91;100.00;99531.44;5129634;27;20218;-66
2022/12/07 08:09:20;;;;;;;0.50;0.50;;;;;;;8.02;100.00;99534.63;5127556;27;20222;-66
2022/12/07 08:11:47;;;;;;;0.40;0.40;;;;;;;8.08;100.00;99529.41;5123043;27;20209;-65
2022/12/07 08:14:14;;;;;;;0.60;0.60;;;;;;;8.19;100.00;99527.50;5129904;27;20209;-66
2022/12/07 08:16:42;;;;;;;0.50;0.50;;;;;;;8.32;100.00;99536.66;5126880;27;20222;-67
2022/12/07 08:19:09;;;;;;;1.53;1.53;;;;;;;8.34;100.00;99524.69;5126459;27;20210;-67
2022/12/07 08:21:36;;;;;;;0.97;0.80;;;;;;;8.50;100.00;99526.97;5124239;27;20262;-65
2022/12/07 08:24:02;;;;;;;1.37;1.37;;;;;;;8.61;100.00;99525.00;5122695;27;20214;-67
2022/12/07 08:26:29;;;;;;;0.60;0.60;;;;;;;8.70;100.00;99535.03;5127924;27;20205;-65
2022/12/07 08:28:56;;;;;;;0.80;0.80;;;;;;;8.76;100.00;99532.34;5124238;27;20194;-65
2022/12/07 08:31:23;;;;;;;0.60;0.60;;;;;;;8.85;100.00;99533.00;5124337;27;20225;-64
2022/12/07 08:33:51;;;;;;;0.50;0.50;;;;;;;8.82;100.00;99509.25;5127140;27;20222;-62
2022/12/07 08:36:18;;;;;;;0.80;0.80;;;;;;;9.01;100.00;99531.00;5131399;27;20194;-63
2022/12/07 08:38:45;;;;;;;0.67;0.67;;;;;;;9.09;100.00;99539.31;5132299;27;20206;-64
2022/12/07 08:41:12;;;;;;;0.80;0.80;;;;;;;9.21;100.00;99528.81;5126534;27;20198;-65
2022/12/07 08:43:39;;;;;;;0.83;0.83;;;;;;;9.31;100.00;99525.16;5137477;27;20581;-64
2022/12/07 08:46:10;;;;;;;0.63;0.63;;;;;;;9.44;100.00;99525.72;5121726;27;20197;-65
2022/12/07 08:48:40;;;;;;;0.50;0.50;;;;;;;9.60;100.00;99527.03;5120885;27;20585;-66
2022/12/07 08:51:09;;;;;;;1.43;1.20;;;;;;;9.67;100.00;99527.72;5129394;27;20305;-67
2022/12/07 08:53:37;;;;;;;0.90;0.90;;;;;;;9.73;100.00;99527.56;5125400;27;20202;-67
2022/12/07 08:56:05;;;;;;;0.50;0.50;;;;;;;9.76;100.00;99517.25;5124570;27;20201;-65
2022/12/07 08:58:33;;;;;;;0.70;0.70;;;;;;;9.80;100.00;99516.31;5123230;27;20198;-65
2022/12/07 09:01:00;;;;;;;0.60;0.60;;;;;;;9.83;100.00;99508.56;5122724;27;20206;-66
2022/12/07 09:03:26;;;;;;;0.40;0.40;;;;;;;9.90;100.00;99510.09;5125090;27;20203;-65
2022/12/07 09:05:54;;;;;;;0.80;0.80;;;;;;;9.88;100.00;99511.84;5122773;27;20230;-66
2022/12/07 09:08:23;;;;;;;1.33;1.33;;;;;;;9.88;100.00;99502.47;5120855;27;20703;-65
2022/12/07 09:10:50;;;;;;;1.13;1.13;;;;;;;10.00;100.00;99506.41;5123199;27;20222;-65
2022/12/07 09:13:17;;;;;;;0.67;0.67;;;;;;;10.01;100.00;99502.97;5125766;27;20565;-66
2022/12/07 09:15:43;;;;;;;0.73;0.73;;;;;;;10.07;100.00;99499.41;5136455;27;20719;-64
2022/12/07 09:18:10;;;;;;;3.30;1.50;;;;;;;9.89;100.00;99486.19;5128092;27;20205;-65
2022/12/07 09:20:37;;;;;;;0.70;0.70;;;;;;;9.94;100.00;99491.22;5129783;27;20547;-66
2022/12/07 09:23:06;;;;;;;0.50;0.50;;;;;;;10.06;100.00;99485.75;5141635;27;20586;-65
2022/12/07 09:25:34;;;;;;;0.83;0.83;;;;;;;10.18;100.00;99475.19;5140278;27;20573;-64
2022/12/07 09:28:01;;;;;;;2.37;1.33;;;;;;;10.23;100.00;99473.38;5136685;27;20194;-64
2022/12/07 09:30:28;;;;;;;0.97;0.97;;;;;;;10.35;100.00;99467.91;5134564;27;20221;-65
2022/12/07 09:32:56;;;;;;;0.80;0.80;;;;;;;10.34;100.00;99461.09;5132448;27;20692;-64
2022/12/07 09:35:24;;;;;;;0.77;0.77;;;;;;;10.45;100.00;99461.63;5134984;27;20198;-65
2022/12/07 09:37:50;;;;;;;1.07;1.07;;;;;;;10.37;100.00;99447.38;5137119;27;20203;-66
2022/12/07 09:40:20;;;;;;;0.60;0.60;;;;;;;10.61;100.00;99456.06;5139905;27;20251;-66
2022/12/07 09:42:52;;;;;;;0.40;0.40;;;;;;;10.70;100.00;99450.66;5143638;27;20194;-67
2022/12/07 09:45:23;;;;;;;0.80;0.80;;;;;;;10.70;100.00;99448.94;5144680;27;20428;-65
2022/12/07 09:47:50;;;;;;;0.90;0.90;;;;;;;10.75;100.00;99443.66;5155846;27;20569;-65
2022/12/07 09:50:21;;;;;;;1.40;1.07;;;;;;;10.81;100.00;99440.91;5142437;27;20229;-65
2022/12/07 09:52:49;;;;;;;0.50;0.50;;;;;;;10.89;100.00;99444.06;5142818;27;20250;-66
2022/12/07 09:55:21;;;;;;;1.17;1.17;;;;;;;10.89;100.00;99434.66;5134181;27;20205;-65
2022/12/07 09:57:51;;;;;;;0.90;0.90;;;;;;;10.97;100.00;99431.88;5134911;27;20212;-66
2022/12/07 10:00:21;;;;;;;0.60;0.60;;;;;;;10.79;100.00;99433.25;5137270;27;20212;-66
2022/12/07 10:02:50;;;;;;;0.70;0.70;;;;;;;10.83;100.00;99428.88;5132953;27;20585;-65
2022/12/07 10:05:23;;;;;;;1.27;1.27;;;;;;;10.96;100.00;99440.44;5129791;27;20218;-64
2022/12/07 10:07:49;;;;;;;0.50;0.50;;;;;;;11.06;100.00;99436.72;5140879;27;20208;-65
2022/12/07 10:10:24;;;;;;;1.00;1.00;;;;;;;11.05;100.00;99440.16;5134777;27;20634;-66
2022/12/07 10:12:58;;;;;;;0.50;0.50;;;;;;;11.10;100.00;99432.31;5140927;27;20197;-66
2022/12/07 10:15:41;;;;;;;0.50;0.50;;;;;;;11.13;100.00;99422.81;5133360;27;20263;-66
2022/12/07 10:18:20;;;;;;;0.83;0.83;;;;;;;11.16;100.00;99402.19;5130787;27;20206;-66
2022/12/07 10:20:48;;;;;;;1.43;1.43;;;;;;;11.03;100.00;99391.47;5136571;27;20699;-66
2022/12/07 10:23:17;;;;;;;1.07;1.07;;;;;;;11.17;100.00;99418.41;5135668;27;20619;-71
2022/12/07 10:25:44;;;;;;;5.20;0.80;;;;;;;11.10;100.00;99406.66;5138680;27;20219;-69
2022/12/07 10:28:17;;;;;;;0.60;0.60;;;;;;;10.99;100.00;99368.53;5140803;27;20202;-72
2022/12/07 10:30:49;;;;;;;0.50;0.50;;;;;;;11.22;100.00;99406.25;5132682;27;20214;-69
2022/12/07 10:33:29;;;;;;;1.20;1.20;;;;;;;11.27;100.00;99400.13;5134916;27;20674;-70
2022/12/07 10:35:57;;;;;;;0.53;0.53;;;;;;;11.38;100.00;99398.00;5139918;27;20202;-74
2022/12/07 10:38:26;;;;;;;0.60;0.60;;;;;;;11.21;100.00;99405.41;5137968;27;20263;-71
2022/12/07 10:41:05;;;;;;;0.50;0.50;;;;;;;11.29;100.00;99407.75;5136408;27;20198;-73
2022/12/07 10:43:33;;;;;;;0.97;0.97;;;;;;;11.40;100.00;99401.38;5138013;27;20198;-71
2022/12/07 10:46:18;;;;;;;0.70;0.70;;;;;;;11.48;100.00;99404.50;5137270;27;20201;-71
2022/12/07 10:48:55;;;;;;;0.57;0.57;;;;;;;11.59;99.56;99401.59;5130621;27;20577;-70
2022/12/07 10:51:34;;;;;;;0.40;0.40;;;;;;;11.60;99.86;99395.53;5130326;27;20570;-69
2022/12/07 10:54:09;;;;;;;0.40;0.40;;;;;;;11.63;100.00;99385.19;5128231;27;20209;-66
2022/12/07 10:57:13;;;;;;;1.33;1.33;;;;;;;11.69;99.88;99386.72;5133872;27;20206;-66
2022/12/07 11:00:00;;;;;;;0.50;0.50;;;;;;;11.78;99.67;99394.13;5128144;27;20267;-66
2022/12/07 11:02:46;;;;;;;0.50;0.50;;;;;;;11.82;99.41;99388.00;5124125;27;20202;-66
2022/12/07 11:05:24;;;;;;;0.60;0.60;;;;;;;11.86;97.09;99390.38;5133656;27;20608;-65
2022/12/07 11:08:02;;;;;;;0.60;0.60;;;;;;;11.80;96.88;99374.34;5145113;27;20246;-67
2022/12/07 11:10:39;;;;;;;0.50;0.50;;;;;;;11.91;92.63;99390.22;5136601;27;20213;-67
2022/12/07 11:13:24;;;;;;;0.50;0.50;;;;;;;11.92;93.17;99382.44;5132952;27;20198;-68
2022/12/07 11:16:08;;;;;;;0.60;0.60;;;;;;;11.92;91.59;99373.94;5150359;27;20573;-66
2022/12/07 11:18:46;;;;;;;0.50;0.50;;;;;;;11.93;93.81;99380.72;5150155;27;20246;-64
2022/12/07 11:21:25;;;;;;;1.00;1.00;;;;;;;11.79;95.52;99357.28;5138299;27;20198;-64
2022/12/07 11:24:02;;;;;;;0.77;0.77;;;;;;;11.70;96.00;99337.88;5146724;27;20280;-64
2022/12/07 11:26:43;;;;;;;0.70;0.70;;;;;;;12.10;95.33;99362.97;5134514;27;20190;-64
2022/12/07 11:29:34;;;;;;;1.20;1.20;;;;;;;12.16;94.61;99356.75;5135481;27;20220;-64
2022/12/07 11:32:14;;;;;;;0.40;0.40;;;;;;;12.15;93.01;99361.06;5132257;27;20221;-64
2022/12/07 11:34:52;;;;;;;0.87;0.87;;;;;;;12.20;93.11;99359.16;5143354;27;20202;-66
2022/12/07 11:37:22;;;;;;;0.97;0.97;;;;;;;11.29;92.93;99210.16;5136952;27;20186;-67
2022/12/07 11:39:53;;;;;;;0.43;0.43;;;;;;;12.11;93.30;99341.53;5145899;27;20217;-67
2022/12/07 11:42:25;;;;;;;1.23;1.23;;;;;;;12.08;93.87;99349.34;5126956;27;20673;-68
2022/12/07 11:44:56;;;;;;;0.43;0.43;;;;;;;12.09;92.75;99351.00;5134409;27;20193;-67
2022/12/07 11:47:31;;;;;;;0.50;0.50;;;;;;;12.09;93.53;99348.44;5135783;27;20201;-65
2022/12/07 11:50:14;;;;;;;0.40;0.40;;;;;;;12.16;93.08;99341.34;5144877;27;20193;-65
2022/12/07 11:52:46;;;;;;;0.60;0.60;;;;;;;12.19;94.31;99344.63;5139999;27;20197;-64